createdAt,value
2023-02-19T00:01:35.681Z,1.00
2023-02-19T00:04:12.636Z,0.90
2023-02-19T00:06:39.666Z,1.03
2023-02-19T00:09:06.703Z,1.10
2023-02-19T00:11:34.714Z,1.10
2023-02-19T00:14:02.666Z,1.13
2023-02-19T00:16:39.692Z,1.20
2023-02-19T00:19:08.968Z,1.20
2023-02-19T00:21:35.884Z,1.00
2023-02-19T00:24:04.753Z,1.27
2023-02-19T00:26:32.034Z,1.03
2023-02-19T00:28:59.027Z,1.20
2023-02-19T00:31:32.655Z,1.10
2023-02-19T00:34:03.180Z,1.10
2023-02-19T00:36:30.585Z,1.13
2023-02-19T00:38:57.359Z,1.00
2023-02-19T00:41:25.197Z,1.00
2023-02-19T00:43:51.810Z,1.20
2023-02-19T00:46:22.176Z,1.10
2023-02-19T00:48:49.015Z,1.27
2023-02-19T00:51:16.038Z,1.10
2023-02-19T00:53:43.157Z,1.20
2023-02-19T00:56:10.320Z,1.20
2023-02-19T00:58:37.164Z,1.30
2023-02-19T01:01:05.619Z,1.20
2023-02-19T01:03:36.052Z,1.47
2023-02-19T01:06:03.410Z,1.07
2023-02-19T01:08:33.246Z,1.43
2023-02-19T01:11:00.762Z,1.13
2023-02-19T01:13:28.411Z,1.10
2023-02-19T01:16:03.544Z,1.20
2023-02-19T01:18:30.963Z,1.10
2023-02-19T01:20:57.610Z,1.20
2023-02-19T01:23:24.328Z,1.10
2023-02-19T01:25:51.051Z,1.07
2023-02-19T01:28:17.743Z,1.10
2023-02-19T01:30:44.494Z,1.10
2023-02-19T01:33:11.151Z,1.10
2023-02-19T01:35:41.015Z,1.00
2023-02-19T01:38:08.695Z,1.00
2023-02-19T01:40:35.790Z,1.20
2023-02-19T01:43:03.739Z,1.00
2023-02-19T01:45:39.428Z,1.10
2023-02-19T01:48:25.425Z,0.97
2023-02-19T01:50:55.902Z,1.10
2023-02-19T01:53:25.969Z,1.13
2023-02-19T01:55:55.304Z,1.27
2023-02-19T01:58:23.131Z,1.20
2023-02-19T02:00:51.761Z,1.20
2023-02-19T02:03:19.595Z,1.10
2023-02-19T02:05:56.301Z,1.20
2023-02-19T02:08:42.531Z,1.07
2023-02-19T02:11:09.773Z,1.10
2023-02-19T02:13:38.557Z,1.00
2023-02-19T02:16:25.584Z,0.90
2023-02-19T02:19:10.884Z,0.90
2023-02-19T02:21:52.750Z,1.20
2023-02-19T02:24:43.761Z,1.20
2023-02-19T02:27:39.843Z,1.00
2023-02-19T02:30:39.990Z,1.10
2023-02-19T02:33:31.951Z,1.17
2023-02-19T02:36:05.711Z,0.90
2023-02-19T02:38:35.828Z,1.00
2023-02-19T02:41:02.835Z,0.90
2023-02-19T02:43:29.543Z,1.00
2023-02-19T02:45:56.211Z,1.00
2023-02-19T02:48:43.929Z,1.10
2023-02-19T02:51:34.132Z,1.10
2023-02-19T02:54:27.591Z,1.10
2023-02-19T02:57:01.710Z,1.00
2023-02-19T02:59:32.483Z,0.93
2023-02-19T03:02:22.653Z,1.10
2023-02-19T03:05:31.733Z,0.93
2023-02-19T03:08:00.753Z,1.00
2023-02-19T03:10:42.101Z,0.90
2023-02-19T03:13:35.268Z,1.03
2023-02-19T03:16:27.306Z,0.90
2023-02-19T03:19:13.412Z,0.90
2023-02-19T03:21:41.587Z,1.00
2023-02-19T03:24:29.138Z,0.90
2023-02-19T03:26:57.527Z,0.93
2023-02-19T03:29:26.436Z,0.90
2023-02-19T03:31:56.793Z,0.70
2023-02-19T03:34:37.504Z,1.00
2023-02-19T03:37:17.153Z,0.90
2023-02-19T03:39:46.593Z,0.90
2023-02-19T03:42:26.016Z,0.80
2023-02-19T03:45:22.454Z,0.80
2023-02-19T03:48:27.891Z,0.90
2023-02-19T03:50:59.194Z,1.00
2023-02-19T03:53:32.851Z,0.90
2023-02-19T03:56:07.603Z,0.80
2023-02-19T03:58:51.310Z,0.77
2023-02-19T04:01:26.422Z,0.90
2023-02-19T04:03:56.094Z,1.00
2023-02-19T04:06:26.760Z,0.80
2023-02-19T04:08:56.735Z,0.80
2023-02-19T04:11:24.130Z,0.90
2023-02-19T04:14:01.195Z,0.80
2023-02-19T04:16:30.178Z,0.90
2023-02-19T04:19:02.243Z,0.80
2023-02-19T04:21:31.602Z,0.90
2023-02-19T04:24:03.658Z,0.70
2023-02-19T04:26:31.577Z,0.90
2023-02-19T04:28:58.727Z,0.90
2023-02-19T04:31:26.649Z,0.70
2023-02-19T04:33:53.439Z,0.90
2023-02-19T04:36:20.083Z,0.70
2023-02-19T04:38:46.852Z,0.60
2023-02-19T04:41:13.529Z,0.80
2023-02-19T04:43:40.201Z,0.80
2023-02-19T04:46:06.884Z,0.77
2023-02-19T04:48:33.624Z,0.80
2023-02-19T04:51:00.456Z,0.60
2023-02-19T04:53:27.105Z,0.50
2023-02-19T04:55:53.752Z,0.67
2023-02-19T04:58:21.305Z,0.80
2023-02-19T05:00:52.154Z,0.80
2023-02-19T05:03:18.946Z,0.70
2023-02-19T05:05:45.582Z,0.63
2023-02-19T05:08:12.244Z,0.80
2023-02-19T05:10:38.904Z,0.90
2023-02-19T05:13:05.570Z,1.07
2023-02-19T05:15:32.331Z,1.00
2023-02-19T05:17:59.014Z,0.80
2023-02-19T05:20:25.818Z,0.90
2023-02-19T05:22:52.458Z,0.80
2023-02-19T05:25:19.123Z,0.90
2023-02-19T05:27:45.814Z,0.80
2023-02-19T05:30:13.350Z,0.70
2023-02-19T05:32:42.093Z,0.60
2023-02-19T05:35:09.156Z,0.70
2023-02-19T05:37:35.814Z,0.70
2023-02-19T05:40:02.515Z,0.50
2023-02-19T05:42:29.266Z,0.50
2023-02-19T05:44:56.206Z,0.53
2023-02-19T05:47:22.906Z,0.60
2023-02-19T05:49:49.564Z,0.57
2023-02-19T05:52:16.240Z,0.50
2023-02-19T05:54:42.911Z,0.40
2023-02-19T05:57:09.991Z,0.47
2023-02-19T05:59:36.629Z,0.40
2023-02-19T06:02:03.307Z,0.37
2023-02-19T06:04:29.967Z,0.30
2023-02-19T06:06:56.634Z,0.20
2023-02-19T06:09:23.277Z,0.20
2023-02-19T06:11:49.938Z,0.30
2023-02-19T06:14:16.600Z,0.30
2023-02-19T06:16:43.294Z,0.30
2023-02-19T06:19:09.959Z,0.30
2023-02-19T06:21:36.671Z,0.10
2023-02-19T06:24:08.207Z,0.20
2023-02-19T06:26:34.950Z,0.10
2023-02-19T06:29:01.637Z,0.20
2023-02-19T06:31:28.486Z,0.20
2023-02-19T06:33:55.375Z,0.30
2023-02-19T06:36:23.209Z,0.10
2023-02-19T06:38:50.125Z,0.30
2023-02-19T06:41:17.047Z,0.20
2023-02-19T06:43:43.784Z,0.20
2023-02-19T06:46:12.743Z,0.40
2023-02-19T06:48:41.225Z,0.30
2023-02-19T06:51:18.980Z,0.20
2023-02-19T06:53:46.225Z,0.20
2023-02-19T06:56:30.921Z,0.10
2023-02-19T06:59:00.334Z,0.23
2023-02-19T07:01:28.343Z,0.30
2023-02-19T07:03:55.657Z,0.20
2023-02-19T07:06:24.359Z,0.37
2023-02-19T07:08:52.118Z,0.40
2023-02-19T07:11:19.135Z,0.40
2023-02-19T07:13:46.203Z,0.37
2023-02-19T07:16:13.613Z,0.50
2023-02-19T07:18:41.093Z,0.60
2023-02-19T07:21:10.816Z,0.50
2023-02-19T07:23:37.850Z,0.50
2023-02-19T07:26:05.226Z,0.70
2023-02-19T07:28:31.909Z,0.50
2023-02-19T07:31:02.520Z,0.60
2023-02-19T07:33:29.579Z,0.53
2023-02-19T07:35:56.265Z,0.70
2023-02-19T07:38:24.733Z,0.53
2023-02-19T07:40:56.180Z,0.50
2023-02-19T07:43:24.400Z,0.60
2023-02-19T07:45:51.526Z,0.50
2023-02-19T07:48:18.731Z,0.67
2023-02-19T07:50:55.852Z,0.70
2023-02-19T07:53:23.218Z,0.80
2023-02-19T07:55:50.166Z,0.70
2023-02-19T07:58:17.776Z,0.60
2023-02-19T08:00:44.663Z,0.70
2023-02-19T08:03:11.961Z,0.80
2023-02-19T08:05:40.312Z,0.73
2023-02-19T08:08:11.924Z,0.67
2023-02-19T08:10:57.410Z,0.70
2023-02-19T08:13:28.023Z,0.80
2023-02-19T08:16:10.929Z,0.70
2023-02-19T08:18:41.450Z,0.80
2023-02-19T08:21:08.276Z,0.90
2023-02-19T08:23:35.204Z,0.60
2023-02-19T08:26:02.761Z,1.00
2023-02-19T08:28:30.233Z,0.90
2023-02-19T08:31:02.349Z,0.83
2023-02-19T08:33:30.525Z,0.90
2023-02-19T08:36:00.093Z,0.90
2023-02-19T08:38:26.758Z,0.90
2023-02-19T08:40:53.653Z,0.70
2023-02-19T08:43:20.354Z,0.80
2023-02-19T08:45:49.838Z,0.90
2023-02-19T08:48:16.561Z,0.90
2023-02-19T08:50:43.343Z,0.70
2023-02-19T08:53:10.190Z,0.60
2023-02-19T08:55:38.682Z,0.73
2023-02-19T08:58:05.521Z,0.60
2023-02-19T09:00:32.526Z,0.80
2023-02-19T09:02:59.307Z,0.70
2023-02-19T09:05:25.971Z,0.60
2023-02-19T09:07:53.072Z,0.60
2023-02-19T09:10:19.911Z,0.70
2023-02-19T09:12:46.754Z,0.67
2023-02-19T09:15:13.407Z,0.70
2023-02-19T09:17:40.260Z,0.60
2023-02-19T09:20:08.230Z,1.00
2023-02-19T09:22:35.199Z,0.60
2023-02-19T09:25:02.102Z,0.80
2023-02-19T09:27:28.863Z,0.70
2023-02-19T09:29:55.577Z,1.00
2023-02-19T09:32:22.434Z,0.97
2023-02-19T09:34:49.984Z,0.80
2023-02-19T09:37:16.730Z,0.80
2023-02-19T09:39:43.454Z,0.90
2023-02-19T09:42:15.424Z,0.80
2023-02-19T09:44:45.228Z,0.80
2023-02-19T09:47:23.921Z,0.90
2023-02-19T09:49:54.850Z,1.00
2023-02-19T09:52:24.835Z,0.80
2023-02-19T09:54:57.659Z,0.80
2023-02-19T09:57:25.916Z,1.10
2023-02-19T10:00:00.366Z,1.00
2023-02-19T10:02:27.899Z,0.70
2023-02-19T10:04:54.647Z,0.90
2023-02-19T10:07:26.738Z,0.80
2023-02-19T10:10:01.186Z,0.77
2023-02-19T10:12:31.239Z,0.90
2023-02-19T10:15:19.973Z,0.90
2023-02-19T10:17:46.739Z,0.70
2023-02-19T10:20:15.470Z,0.90
2023-02-19T10:22:42.611Z,0.80
2023-02-19T10:25:14.450Z,0.90
2023-02-19T10:27:41.287Z,0.77
2023-02-19T10:30:15.715Z,0.90
2023-02-19T10:33:02.424Z,0.80
2023-02-19T10:35:29.948Z,0.50
2023-02-19T10:37:57.405Z,0.87
2023-02-19T10:40:26.624Z,1.10
2023-02-19T10:42:58.932Z,0.77
2023-02-19T10:45:39.930Z,0.77
2023-02-19T10:48:10.163Z,0.80
2023-02-19T10:50:45.743Z,0.80
2023-02-19T10:53:26.615Z,0.50
2023-02-19T10:56:08.010Z,0.73
2023-02-19T10:58:37.343Z,0.90
2023-02-19T11:01:19.538Z,0.60
2023-02-19T11:04:17.619Z,0.90
2023-02-19T11:06:45.485Z,0.93
2023-02-19T11:09:30.487Z,0.80
2023-02-19T11:11:57.896Z,0.80
2023-02-19T11:14:25.824Z,0.87
2023-02-19T11:17:00.231Z,0.63
2023-02-19T11:19:32.120Z,0.70
2023-02-19T11:22:00.426Z,0.80
2023-02-19T11:24:35.319Z,0.80
2023-02-19T11:27:05.171Z,0.70
2023-02-19T11:29:36.320Z,0.80
2023-02-19T11:32:33.581Z,0.83
2023-02-19T11:35:23.221Z,0.70
2023-02-19T11:38:11.675Z,0.90
2023-02-19T11:40:57.027Z,0.93
2023-02-19T11:43:34.927Z,0.80
2023-02-19T11:46:15.162Z,0.80
2023-02-19T11:49:03.335Z,0.80
2023-02-19T11:51:40.895Z,0.70
2023-02-19T11:54:21.340Z,0.83
2023-02-19T11:56:56.112Z,0.87
2023-02-19T11:59:43.715Z,0.70
2023-02-19T12:02:31.673Z,0.93
2023-02-19T12:05:31.088Z,0.70
2023-02-19T12:08:31.326Z,0.80
2023-02-19T12:11:16.091Z,0.90
2023-02-19T12:14:07.921Z,0.90
2023-02-19T12:17:04.230Z,0.87
2023-02-19T12:19:47.992Z,0.80
2023-02-19T12:22:44.474Z,0.93
2023-02-19T12:25:44.574Z,0.90
2023-02-19T12:28:55.232Z,0.80
2023-02-19T12:31:46.781Z,0.90
2023-02-19T12:34:38.523Z,0.80
2023-02-19T12:37:21.992Z,0.80
2023-02-19T12:40:03.747Z,0.80
2023-02-19T12:42:46.435Z,0.60
2023-02-19T12:45:33.652Z,0.80
2023-02-19T12:48:26.332Z,0.90
2023-02-19T12:51:03.214Z,0.97
2023-02-19T12:53:39.078Z,0.90
2023-02-19T12:56:14.267Z,0.80
2023-02-19T12:58:54.069Z,0.80
2023-02-19T13:01:30.661Z,0.80
2023-02-19T13:04:06.462Z,0.90
2023-02-19T13:06:49.974Z,0.70
2023-02-19T13:09:31.436Z,0.80
2023-02-19T13:12:14.444Z,0.80
2023-02-19T13:14:51.187Z,0.80
2023-02-19T13:17:20.239Z,0.93
2023-02-19T13:19:48.805Z,0.80
2023-02-19T13:22:51.323Z,0.80
2023-02-19T13:25:18.565Z,0.67
2023-02-19T13:27:59.317Z,0.80
2023-02-19T13:30:56.396Z,0.80
2023-02-19T13:33:43.066Z,0.80
2023-02-19T13:36:14.441Z,0.70
2023-02-19T13:38:46.262Z,0.70
2023-02-19T13:41:30.498Z,0.80
2023-02-19T13:44:03.320Z,1.00
2023-02-19T13:46:41.741Z,0.73
2023-02-19T13:49:36.462Z,0.80
2023-02-19T13:52:24.194Z,0.80
2023-02-19T13:54:51.375Z,1.10
2023-02-19T13:57:24.224Z,0.90
2023-02-19T13:59:52.090Z,0.80
2023-02-19T14:02:22.401Z,0.87
2023-02-19T14:04:52.731Z,0.73
2023-02-19T14:07:20.577Z,1.00
2023-02-19T14:09:47.450Z,0.90
2023-02-19T14:12:15.866Z,0.80
2023-02-19T14:14:47.452Z,0.90
2023-02-19T14:17:24.996Z,1.10
2023-02-19T14:19:53.765Z,1.30
2023-02-19T14:22:51.328Z,1.50
2023-02-19T14:25:27.244Z,2.13
2023-02-19T14:28:17.100Z,2.23
2023-02-19T14:30:51.587Z,1.80
2023-02-19T14:33:22.610Z,1.80
2023-02-19T14:35:59.544Z,1.93
2023-02-19T14:38:30.531Z,1.83
2023-02-19T14:40:57.515Z,1.63
2023-02-19T14:43:25.937Z,1.50
2023-02-19T14:45:58.381Z,1.40
2023-02-19T14:48:33.011Z,1.60
2023-02-19T14:51:05.329Z,1.40
2023-02-19T14:53:44.462Z,1.47
2023-02-19T14:56:25.556Z,1.30
2023-02-19T14:59:11.788Z,1.30
2023-02-19T15:01:38.730Z,1.40
2023-02-19T15:04:06.422Z,1.40
2023-02-19T15:06:35.517Z,1.20
2023-02-19T15:09:05.458Z,1.03
2023-02-19T15:11:32.861Z,1.10
2023-02-19T15:14:05.058Z,1.40
2023-02-19T15:16:33.115Z,1.07
2023-02-19T15:19:00.417Z,1.33
2023-02-19T15:21:33.134Z,1.20
2023-02-19T15:24:04.880Z,1.00
2023-02-19T15:26:42.252Z,1.20
2023-02-19T15:29:16.444Z,1.10
2023-02-19T15:31:59.003Z,1.20
2023-02-19T15:34:30.514Z,1.00
2023-02-19T15:37:10.339Z,1.00
2023-02-19T15:39:43.766Z,1.03
2023-02-19T15:42:15.006Z,1.20
2023-02-19T15:44:57.550Z,1.10
2023-02-19T15:47:50.154Z,1.00
2023-02-19T15:50:26.820Z,1.23
2023-02-19T15:53:22.093Z,1.00
2023-02-19T15:56:05.514Z,1.10
2023-02-19T15:58:48.203Z,1.17
2023-02-19T16:01:31.177Z,1.10
2023-02-19T16:03:58.490Z,1.20
2023-02-19T16:06:26.921Z,1.10
2023-02-19T16:09:05.751Z,1.03
2023-02-19T16:11:53.191Z,1.10
2023-02-19T16:14:28.939Z,1.27
2023-02-19T16:17:09.405Z,1.00
2023-02-19T16:20:00.899Z,1.00
2023-02-19T16:22:29.854Z,1.17
2023-02-19T16:25:00.284Z,1.00
2023-02-19T16:27:47.324Z,1.00
2023-02-19T16:30:17.026Z,1.03
2023-02-19T16:32:45.351Z,1.20
2023-02-19T16:35:36.768Z,1.17
2023-02-19T16:38:03.464Z,1.07
2023-02-19T16:40:48.450Z,1.13
2023-02-19T16:43:15.265Z,1.13
2023-02-19T16:45:45.395Z,1.10
2023-02-19T16:48:14.757Z,1.10
2023-02-19T16:50:43.916Z,1.10
2023-02-19T16:53:26.131Z,1.20
2023-02-19T16:55:55.924Z,1.10
2023-02-19T16:58:24.858Z,1.27
2023-02-19T17:00:53.487Z,1.20
2023-02-19T17:03:21.924Z,1.23
2023-02-19T17:05:48.802Z,1.20
2023-02-19T17:08:35.083Z,1.10
2023-02-19T17:11:06.574Z,1.07
2023-02-19T17:13:33.909Z,1.20
2023-02-19T17:16:00.960Z,1.00
2023-02-19T17:18:28.167Z,1.10
2023-02-19T17:21:22.930Z,1.30
2023-02-19T17:23:50.329Z,1.30
2023-02-19T17:26:26.493Z,1.20
2023-02-19T17:28:53.178Z,1.33
2023-02-19T17:31:20.083Z,1.50
2023-02-19T17:33:47.080Z,1.20
2023-02-19T17:36:30.471Z,1.27
2023-02-19T17:38:58.025Z,1.30
2023-02-19T17:41:24.754Z,1.63
2023-02-19T17:43:51.769Z,1.80
2023-02-19T17:46:20.852Z,1.50
2023-02-19T17:48:47.895Z,1.90
2023-02-19T17:51:15.102Z,1.90
2023-02-19T17:53:42.332Z,1.90
2023-02-19T17:56:09.122Z,1.90
2023-02-19T17:58:35.870Z,2.30
2023-02-19T18:01:02.598Z,2.20
2023-02-19T18:03:29.993Z,3.10
2023-02-19T18:05:56.714Z,3.43
2023-02-19T18:08:23.420Z,3.13
2023-02-19T18:10:50.169Z,4.00
2023-02-19T18:13:16.971Z,3.70
2023-02-19T18:15:43.697Z,4.00
2023-02-19T18:18:10.575Z,3.73
2023-02-19T18:20:37.398Z,3.33
2023-02-19T18:23:04.499Z,3.03
2023-02-19T18:25:31.173Z,3.00
2023-02-19T18:27:59.034Z,3.00
2023-02-19T18:30:25.984Z,2.97
2023-02-19T18:32:52.769Z,2.50
2023-02-19T18:35:20.140Z,2.47
2023-02-19T18:37:51.482Z,2.33
2023-02-19T18:40:19.919Z,2.20
2023-02-19T18:42:46.770Z,2.40
2023-02-19T18:45:13.432Z,1.97
2023-02-19T18:47:40.216Z,2.50
2023-02-19T18:50:08.585Z,2.10
2023-02-19T18:52:35.376Z,2.00
2023-02-19T18:55:02.170Z,2.17
2023-02-19T18:57:28.988Z,2.10
2023-02-19T18:59:55.789Z,1.80
2023-02-19T19:02:22.568Z,1.90
2023-02-19T19:04:52.176Z,1.90
2023-02-19T19:07:19.418Z,2.03
2023-02-19T19:09:46.454Z,2.00
2023-02-19T19:12:13.466Z,2.00
2023-02-19T19:14:40.476Z,1.93
2023-02-19T19:17:07.181Z,2.20
2023-02-19T19:19:36.524Z,2.00
2023-02-19T19:22:06.057Z,2.10
2023-02-19T19:24:33.430Z,2.00
2023-02-19T19:27:00.599Z,1.60
2023-02-19T19:29:27.652Z,1.80
2023-02-19T19:31:54.986Z,1.97
2023-02-19T19:34:21.678Z,1.73
2023-02-19T19:36:48.384Z,1.90
2023-02-19T19:39:15.158Z,2.00
2023-02-19T19:41:41.828Z,1.70
2023-02-19T19:44:09.299Z,1.80
2023-02-19T19:46:42.080Z,1.70
2023-02-19T19:49:10.867Z,2.03
2023-02-19T19:51:39.989Z,1.57
2023-02-19T19:54:08.394Z,1.73
2023-02-19T19:56:41.207Z,1.73
2023-02-19T19:59:12.658Z,1.70
2023-02-19T20:01:39.919Z,1.57
2023-02-19T20:04:09.800Z,1.70
2023-02-19T20:06:36.463Z,1.60
2023-02-19T20:09:03.374Z,1.80
2023-02-19T20:11:30.382Z,1.87
2023-02-19T20:13:57.058Z,1.50
2023-02-19T20:16:27.824Z,1.90
2023-02-19T20:18:54.831Z,1.67
2023-02-19T20:21:21.570Z,1.60
2023-02-19T20:23:48.223Z,1.60
2023-02-19T20:26:25.658Z,1.87
2023-02-19T20:28:53.308Z,1.70
2023-02-19T20:31:21.841Z,1.50
2023-02-19T20:33:51.098Z,1.70
2023-02-19T20:36:19.998Z,1.70
2023-02-19T20:38:47.224Z,1.43
2023-02-19T20:41:14.113Z,1.60
2023-02-19T20:43:48.717Z,1.50
2023-02-19T20:46:15.930Z,1.50
2023-02-19T20:48:43.214Z,2.00
2023-02-19T20:51:09.884Z,1.80
2023-02-19T20:53:37.830Z,1.80
2023-02-19T20:56:06.132Z,1.67
2023-02-19T20:58:32.778Z,1.90
2023-02-19T21:00:59.723Z,2.00
2023-02-19T21:03:26.867Z,2.00
2023-02-19T21:05:53.581Z,1.80
2023-02-19T21:08:20.506Z,1.80
2023-02-19T21:10:47.316Z,1.67
2023-02-19T21:13:14.557Z,1.80
2023-02-19T21:15:41.227Z,1.63
2023-02-19T21:18:07.971Z,1.90
2023-02-19T21:20:35.055Z,1.70
2023-02-19T21:23:02.016Z,1.60
2023-02-19T21:25:28.854Z,1.60
2023-02-19T21:27:55.639Z,1.50
2023-02-19T21:30:22.902Z,1.50
2023-02-19T21:32:49.578Z,1.60
2023-02-19T21:35:16.514Z,1.53
2023-02-19T21:37:44.240Z,1.83
2023-02-19T21:40:12.859Z,1.93
2023-02-19T21:42:39.632Z,1.90
2023-02-19T21:45:06.749Z,1.60
2023-02-19T21:47:33.697Z,1.60
2023-02-19T21:50:00.350Z,1.70
2023-02-19T21:52:27.084Z,1.83
2023-02-19T21:54:53.735Z,1.80
2023-02-19T21:57:20.550Z,2.03
2023-02-19T21:59:47.226Z,1.70
2023-02-19T22:02:14.241Z,1.80
2023-02-19T22:04:40.964Z,1.80
2023-02-19T22:07:07.612Z,1.97
2023-02-19T22:09:34.264Z,1.60
2023-02-19T22:12:00.948Z,1.77
2023-02-19T22:14:27.951Z,1.90
2023-02-19T22:16:54.651Z,1.80
2023-02-19T22:19:21.304Z,1.90
2023-02-19T22:21:48.035Z,1.63
2023-02-19T22:24:17.514Z,1.93
2023-02-19T22:26:44.960Z,1.67
2023-02-19T22:29:14.063Z,1.50
2023-02-19T22:31:41.162Z,1.50
2023-02-19T22:34:08.080Z,1.70
2023-02-19T22:36:37.457Z,1.60
2023-02-19T22:39:06.033Z,1.50
2023-02-19T22:41:33.189Z,1.53
2023-02-19T22:44:00.243Z,1.90
2023-02-19T22:46:29.517Z,1.53
2023-02-19T22:48:56.274Z,1.40
2023-02-19T22:51:24.031Z,2.53
2023-02-19T22:53:53.379Z,2.40
2023-02-19T22:56:22.769Z,2.60
2023-02-19T22:58:49.957Z,2.73
2023-02-19T23:01:20.312Z,2.90
2023-02-19T23:03:55.725Z,3.00
2023-02-19T23:06:31.902Z,3.10
2023-02-19T23:09:01.925Z,2.50
2023-02-19T23:11:31.467Z,2.63
2023-02-19T23:13:58.860Z,2.70
2023-02-19T23:16:26.075Z,2.60
2023-02-19T23:18:52.907Z,2.60
2023-02-19T23:21:20.254Z,2.80
2023-02-19T23:23:47.092Z,2.60
2023-02-19T23:26:15.336Z,2.47
2023-02-19T23:28:42.909Z,2.37
2023-02-19T23:31:09.842Z,2.27
2023-02-19T23:33:36.617Z,2.30
2023-02-19T23:36:03.360Z,2.33
2023-02-19T23:38:30.043Z,2.40
2023-02-19T23:40:56.739Z,2.23
2023-02-19T23:43:23.404Z,2.03
2023-02-19T23:45:50.111Z,2.40
2023-02-19T23:48:16.835Z,2.70
2023-02-19T23:50:43.479Z,2.10
2023-02-19T23:53:10.565Z,1.90
2023-02-19T23:55:37.265Z,1.70
2023-02-19T23:58:03.936Z,1.80
